Jrs Capella — 5BER4 — position and weather

sailwx.info

Track history (hours):
 
Tides and Currents Weather Stations Pressure Air Temp Water Temp Dewpoint Dewpoint Depression Visibility Wind Speed Wind Dir Waves Ship Positions

Jrs Capella

Last reported at 2018-Jan-18 20:20 UTC. Time now 2018-Jan-20 17:22 UTC.
Position N 49°45' W 003°28'.

Length 130 m; draft 7.5 m.

Type: Cargo ship. MMSI: 212339000.

Date/timePositionNaut miles runAvg speedWind from/ knotsBaromVisibWave heightAir tempDewpointWater temp
2018-Jan-18 20:20N 49°45' W 003°28'3 9.8
2018-Jan-18 20:00N 49°47' W 003°23'5 9.9
2018-Jan-18 19:30N 49°49' W 003°17'5 9.8
2018-Jan-18 19:00N 49°52' W 003°10'5 9.8
2018-Jan-18 18:30N 49°54' W 003°03'510.1
2018-Jan-18 18:00N 49°56' W 002°56'510.7
2018-Jan-18 17:30N 49°58' W 002°49'611.2
2018-Jan-18 16:59N 49°59' W 002°40'612.2
2018-Jan-18 16:29N 50°01' W 002°31'5015.0
2018-Jan-18 13:08N 49°49' W 001°15'216.1
2018-Jan-18 13:00N 49°48' W 001°12'815.6
2018-Jan-18 12:30N 49°46' W 001°01'714.7
2018-Jan-18 12:00N 49°43' W 000°50'713.5
2018-Jan-18 11:30N 49°40' W 000°41'612.1
2018-Jan-18 11:00N 49°37' W 000°32'611.5
2018-Jan-18 10:30N 49°34' W 000°25'510.8
2018-Jan-18 10:00N 49°32' W 000°17'5 9.9
2018-Jan-18 09:30N 49°30' W 000°10'4 8.4
2018-Jan-18 09:00N 49°29' W 000°04'4 7.4
2018-Jan-18 08:30N 49°27' E 000°01'5 9.9
2018-Jan-18 08:00N 49°26' E 000°09'510.0
2018-Jan-18 07:30N 49°26' E 000°16'611.6
2018-Jan-18 07:00N 49°27' E 000°25'5 9.7
2018-Jan-18 06:30N 49°28' E 000°32'510.0
2018-Jan-18 06:00N 49°28' E 000°40'5 9.9
2018-Jan-18 05:30N 49°31' E 000°45'611.7
2018-Jan-18 05:00N 49°25' E 000°48'3 5.1
2018-Jan-18 04:30N 49°27' E 000°51'3 6.6
2018-Jan-18 04:00N 49°26' E 000°56'510.1
2018-Jan-18 03:30N 49°21' E 000°58'0 0.9
2018-Jan-18 03:00N 49°21' E 000°59'0 0.0
2018-Jan-18 02:30N 49°21' E 000°59'0 0.0
2018-Jan-18 02:00N 49°21' E 000°59'0 0.0
2018-Jan-18 01:30N 49°21' E 000°59'0 0.0
2018-Jan-18 01:00N 49°21' E 000°59'0 0.0
2018-Jan-18 00:00N 49°21' E 000°59'0 0.0
2018-Jan-17 23:57N 49°21' E 000°59'  
2018-Jan-12 14:56N 48°50' W 005°31'614.4
2018-Jan-12 14:30N 48°45' W 005°37'  
2018-Jan-09 16:42N 39°26' W 009°50'314.5
2018-Jan-09 16:31N 39°23' W 009°50'714.7
2018-Jan-09 16:01N 39°15' W 009°50'714.6
2018-Jan-09 15:31N 39°08' W 009°50'714.4
2018-Jan-09 15:01N 39°01' W 009°50'714.5
2018-Jan-09 14:31N 38°54' W 009°50'714.9
2018-Jan-09 14:00N 38°46' W 009°50'714.7
2018-Jan-09 13:31N 38°39' W 009°49'815.1
2018-Jan-09 13:00N 38°32' W 009°46'815.4
2018-Jan-09 12:30N 38°24' W 009°44'815.8
2018-Jan-09 12:00N 38°16' W 009°42'816.1
2018-Jan-09 11:31N 38°09' W 009°40'816.0
2018-Jan-09 11:01N 38°01' W 009°37'815.9
2018-Jan-09 10:30N 37°53' W 009°35'815.7
2018-Jan-09 10:01N 37°45' W 009°32'6913.7
2018-Jan-09 04:59N 36°44' W 008°54'715.2
2018-Jan-09 04:31N 36°45' W 008°45'815.5
2018-Jan-09 04:00N 36°47' W 008°35'815.5
2018-Jan-09 03:30N 36°48' W 008°26'815.4
2018-Jan-09 03:01N 36°49' W 008°16'815.2
2018-Jan-09 02:31N 36°50' W 008°07'815.4
2018-Jan-09 02:00N 36°51' W 007°57'  
Track history (hours):
 
Tides and Currents Weather Stations Pressure Air Temp Water Temp Dewpoint Dewpoint Depression Visibility Wind Speed Wind Dir Waves Ship Positions

Jrs Capella

Last reported at 2018-Jan-18 20:20 UTC. Time now 2018-Jan-20 17:22 UTC.
Position N 49°45' W 003°28'.

Length 130 m; draft 7.5 m.

Type: Cargo ship. MMSI: 212339000.

Date/timePositionNaut miles runAvg speedWind from/ knotsBaromVisibWave heightAir tempDewpointWater temp
2018-Jan-18 20:20N 49°45' W 003°28'3 9.8
2018-Jan-18 20:00N 49°47' W 003°23'5 9.9
2018-Jan-18 19:30N 49°49' W 003°17'5 9.8
2018-Jan-18 19:00N 49°52' W 003°10'5 9.8
2018-Jan-18 18:30N 49°54' W 003°03'510.1
2018-Jan-18 18:00N 49°56' W 002°56'510.7
2018-Jan-18 17:30N 49°58' W 002°49'611.2
2018-Jan-18 16:59N 49°59' W 002°40'612.2
2018-Jan-18 16:29N 50°01' W 002°31'5015.0
2018-Jan-18 13:08N 49°49' W 001°15'216.1
2018-Jan-18 13:00N 49°48' W 001°12'815.6
2018-Jan-18 12:30N 49°46' W 001°01'714.7
2018-Jan-18 12:00N 49°43' W 000°50'713.5
2018-Jan-18 11:30N 49°40' W 000°41'612.1
2018-Jan-18 11:00N 49°37' W 000°32'611.5
2018-Jan-18 10:30N 49°34' W 000°25'510.8
2018-Jan-18 10:00N 49°32' W 000°17'5 9.9
2018-Jan-18 09:30N 49°30' W 000°10'4 8.4
2018-Jan-18 09:00N 49°29' W 000°04'4 7.4
2018-Jan-18 08:30N 49°27' E 000°01'5 9.9
2018-Jan-18 08:00N 49°26' E 000°09'510.0
2018-Jan-18 07:30N 49°26' E 000°16'611.6
2018-Jan-18 07:00N 49°27' E 000°25'5 9.7
2018-Jan-18 06:30N 49°28' E 000°32'510.0
2018-Jan-18 06:00N 49°28' E 000°40'5 9.9
2018-Jan-18 05:30N 49°31' E 000°45'611.7
2018-Jan-18 05:00N 49°25' E 000°48'3 5.1
2018-Jan-18 04:30N 49°27' E 000°51'3 6.6
2018-Jan-18 04:00N 49°26' E 000°56'510.1
2018-Jan-18 03:30N 49°21' E 000°58'0 0.9
2018-Jan-18 03:00N 49°21' E 000°59'0 0.0
2018-Jan-18 02:30N 49°21' E 000°59'0 0.0
2018-Jan-18 02:00N 49°21' E 000°59'0 0.0
2018-Jan-18 01:30N 49°21' E 000°59'0 0.0
2018-Jan-18 01:00N 49°21' E 000°59'0 0.0
2018-Jan-18 00:00N 49°21' E 000°59'0 0.0
2018-Jan-17 23:57N 49°21' E 000°59'  
2018-Jan-12 14:56N 48°50' W 005°31'614.4
2018-Jan-12 14:30N 48°45' W 005°37'  
2018-Jan-09 16:42N 39°26' W 009°50'314.5
2018-Jan-09 16:31N 39°23' W 009°50'714.7
2018-Jan-09 16:01N 39°15' W 009°50'714.6
2018-Jan-09 15:31N 39°08' W 009°50'714.4
2018-Jan-09 15:01N 39°01' W 009°50'714.5
2018-Jan-09 14:31N 38°54' W 009°50'714.9
2018-Jan-09 14:00N 38°46' W 009°50'714.7
2018-Jan-09 13:31N 38°39' W 009°49'815.1
2018-Jan-09 13:00N 38°32' W 009°46'815.4
2018-Jan-09 12:30N 38°24' W 009°44'815.8
2018-Jan-09 12:00N 38°16' W 009°42'816.1
2018-Jan-09 11:31N 38°09' W 009°40'816.0
2018-Jan-09 11:01N 38°01' W 009°37'815.9
2018-Jan-09 10:30N 37°53' W 009°35'815.7
2018-Jan-09 10:01N 37°45' W 009°32'6913.7
2018-Jan-09 04:59N 36°44' W 008°54'715.2
2018-Jan-09 04:31N 36°45' W 008°45'815.5
2018-Jan-09 04:00N 36°47' W 008°35'815.5
2018-Jan-09 03:30N 36°48' W 008°26'815.4
2018-Jan-09 03:01N 36°49' W 008°16'815.2
2018-Jan-09 02:31N 36°50' W 008°07'815.4
2018-Jan-09 02:00N 36°51' W 007°57'  

Dump ship's entire track history